createdAt,value
2023-03-12T00:03:13.177Z,5.05
2023-03-12T00:08:16.416Z,4.60
2023-03-12T00:13:20.100Z,3.92
2023-03-12T00:18:23.609Z,3.85
2023-03-12T00:23:27.764Z,4.03
2023-03-12T00:28:35.373Z,4.20
2023-03-12T00:33:41.465Z,3.95
2023-03-12T00:38:44.746Z,4.35
2023-03-12T00:43:52.328Z,4.10
2023-03-12T00:48:55.051Z,4.10
2023-03-12T00:53:59.072Z,4.22
2023-03-12T00:59:02.424Z,4.90
2023-03-12T01:04:05.564Z,4.70
2023-03-12T01:09:10.236Z,6.00
2023-03-12T01:14:15.497Z,6.15
2023-03-12T01:19:20.660Z,8.23
2023-03-12T01:24:27.772Z,11.48
2023-03-12T01:29:32.214Z,11.80
2023-03-12T01:34:36.539Z,16.45
2023-03-12T01:39:40.412Z,17.90
2023-03-12T01:44:50.218Z,14.30
2023-03-12T01:49:57.104Z,13.93
2023-03-12T01:55:14.630Z,14.27
2023-03-12T02:00:26.679Z,13.10
2023-03-12T02:05:44.091Z,13.10
2023-03-12T02:10:51.070Z,13.02
2023-03-12T02:15:54.808Z,13.20
2023-03-12T02:21:28.253Z,13.25
2023-03-12T02:26:32.415Z,13.23
2023-03-12T02:31:55.267Z,9.50
2023-03-12T02:37:03.136Z,11.25
2023-03-12T02:42:07.113Z,13.57
2023-03-12T02:47:13.058Z,14.93
2023-03-12T02:52:16.811Z,13.88
2023-03-12T02:57:19.800Z,13.38
2023-03-12T03:02:25.858Z,10.32
2023-03-12T03:07:32.494Z,10.32
2023-03-12T03:12:40.713Z,9.15
2023-03-12T03:17:44.502Z,10.75
2023-03-12T03:22:51.881Z,10.85
2023-03-12T03:27:55.044Z,11.25
2023-03-12T03:32:59.017Z,11.32
2023-03-12T03:38:05.752Z,12.48
2023-03-12T03:43:10.405Z,12.30
2023-03-12T03:48:18.611Z,10.90
2023-03-12T03:53:23.523Z,11.38
2023-03-12T03:58:30.842Z,11.27
2023-03-12T04:03:35.339Z,9.18
2023-03-12T04:08:40.662Z,9.27
2023-03-12T04:13:49.686Z,9.20
2023-03-12T04:18:56.062Z,8.57
2023-03-12T04:24:00.592Z,8.68
2023-03-12T04:29:08.386Z,8.13
2023-03-12T04:34:14.470Z,8.93
2023-03-12T04:39:21.528Z,8.88
2023-03-12T04:44:27.428Z,10.93
2023-03-12T04:49:31.638Z,10.63
2023-03-12T04:54:34.599Z,9.90
2023-03-12T04:59:42.315Z,11.68
2023-03-12T05:04:46.128Z,11.55
2023-03-12T05:09:50.837Z,12.02
2023-03-12T05:14:55.288Z,12.38
2023-03-12T05:19:59.980Z,12.40
2023-03-12T05:25:04.687Z,11.77
2023-03-12T05:30:10.961Z,9.90
2023-03-12T05:35:14.113Z,10.35
2023-03-12T05:40:20.288Z,10.95
2023-03-12T05:45:23.780Z,10.35
2023-03-12T05:55:37.310Z,11.38
2023-03-12T06:00:42.412Z,11.98
2023-03-12T06:05:48.258Z,11.25
2023-03-12T06:10:57.507Z,12.60
2023-03-12T06:16:18.979Z,12.75
2023-03-12T06:21:26.411Z,12.27
2023-03-12T06:26:29.480Z,11.43
2023-03-12T06:31:32.439Z,12.38
2023-03-12T06:36:35.480Z,13.13
2023-03-12T06:41:38.649Z,11.88
2023-03-12T06:46:42.843Z,12.00
2023-03-12T06:51:45.863Z,13.10
2023-03-12T06:56:48.866Z,12.50
2023-03-12T07:01:51.880Z,12.73
2023-03-12T07:06:54.233Z,14.98
2023-03-12T07:11:57.759Z,11.85
2023-03-12T07:17:02.321Z,11.63
2023-03-12T07:22:05.683Z,12.15
2023-03-12T07:27:09.283Z,14.07
2023-03-12T07:32:12.550Z,12.35
2023-03-12T07:37:15.124Z,12.20
2023-03-12T07:42:18.953Z,13.68
2023-03-12T07:47:24.615Z,11.63
2023-03-12T07:52:29.841Z,12.15
2023-03-12T07:57:32.950Z,11.45
2023-03-12T08:02:35.538Z,13.13
2023-03-12T08:07:38.606Z,12.70
2023-03-12T08:12:41.056Z,12.52
2023-03-12T08:17:44.330Z,12.88
2023-03-12T08:22:47.308Z,12.00
2023-03-12T08:27:51.373Z,11.18
2023-03-12T08:32:54.600Z,12.77
2023-03-12T08:37:57.680Z,12.50
2023-03-12T08:43:00.454Z,10.77
2023-03-12T08:48:06.740Z,11.48
2023-03-12T08:53:09.709Z,12.15
2023-03-12T08:58:12.479Z,13.30
2023-03-12T09:03:15.556Z,12.55
2023-03-12T09:08:18.737Z,12.70
2023-03-12T09:13:21.322Z,11.57
2023-03-12T09:18:24.042Z,11.32
2023-03-12T09:23:29.582Z,11.95
2023-03-12T09:28:32.553Z,11.77
2023-03-12T09:33:36.146Z,10.60
2023-03-12T09:38:39.908Z,9.50
2023-03-12T09:43:49.884Z,10.38
2023-03-12T09:48:56.863Z,8.93
2023-03-12T09:54:04.305Z,9.50
2023-03-12T09:59:12.947Z,9.23
2023-03-12T10:05:00.084Z,10.32
2023-03-12T10:10:06.250Z,10.30
2023-03-12T10:15:27.682Z,11.85
2023-03-12T10:20:33.284Z,12.02
2023-03-12T10:26:00.944Z,9.30
2023-03-12T10:31:32.810Z,9.75
2023-03-12T10:36:42.078Z,9.45
2023-03-12T10:41:46.609Z,10.07
2023-03-12T10:47:18.049Z,9.25
2023-03-12T10:52:23.241Z,9.15
2023-03-12T10:57:41.144Z,8.88
2023-03-12T11:02:46.250Z,8.55
2023-03-12T11:07:49.498Z,8.68
2023-03-12T11:13:26.377Z,8.73
2023-03-12T11:18:37.246Z,7.60
2023-03-12T11:24:04.927Z,8.38
2023-03-12T11:29:40.224Z,6.72
2023-03-12T11:34:43.549Z,7.40
2023-03-12T11:40:21.000Z,7.82
2023-03-12T11:45:38.163Z,7.55
2023-03-12T11:50:48.593Z,8.18
2023-03-12T11:56:03.346Z,7.72
2023-03-12T12:01:28.984Z,8.75
2023-03-12T12:07:15.296Z,9.35
2023-03-12T12:12:17.583Z,7.75
2023-03-12T12:17:30.450Z,7.95
2023-03-12T12:22:52.020Z,8.98
2023-03-12T12:28:20.545Z,7.93
2023-03-12T12:33:36.515Z,7.45
2023-03-12T12:38:53.229Z,7.25
2023-03-12T12:44:03.589Z,6.82
2023-03-12T12:49:17.836Z,8.07
2023-03-12T12:54:49.725Z,7.32
2023-03-12T13:00:27.592Z,7.18
2023-03-12T13:05:50.615Z,6.15
2023-03-12T13:11:02.525Z,7.18
2023-03-12T13:16:34.561Z,7.70
2023-03-12T13:22:11.365Z,8.45
2023-03-12T13:27:24.264Z,7.97
2023-03-12T13:32:50.033Z,6.88
2023-03-12T13:37:55.075Z,7.00
2023-03-12T13:43:11.682Z,8.13
2023-03-12T13:48:19.148Z,7.53
2023-03-12T13:53:29.656Z,7.47
2023-03-12T13:58:44.992Z,7.53
2023-03-12T14:04:04.387Z,7.15
2023-03-12T14:09:41.120Z,7.35
2023-03-12T14:15:12.428Z,7.10
2023-03-12T14:20:24.522Z,7.13
2023-03-12T14:25:38.551Z,7.85
2023-03-12T14:31:06.595Z,8.20
2023-03-12T14:36:23.857Z,6.97
2023-03-12T14:41:41.674Z,8.40
2023-03-12T14:46:58.801Z,7.82
2023-03-12T14:52:01.958Z,7.85
2023-03-12T14:57:15.973Z,8.07
2023-03-12T15:02:24.004Z,7.93
2023-03-12T15:07:38.065Z,7.55
2023-03-12T15:12:45.015Z,7.75
2023-03-12T15:18:46.398Z,7.90
2023-03-12T15:24:16.821Z,7.88
2023-03-12T15:29:41.936Z,7.97
2023-03-12T15:34:45.456Z,6.88
2023-03-12T15:39:54.306Z,7.90
2023-03-12T15:45:08.296Z,7.00
2023-03-12T15:50:23.763Z,7.13
2023-03-12T15:55:33.208Z,7.55
2023-03-12T16:00:45.946Z,6.78
2023-03-12T16:05:52.058Z,8.15
2023-03-12T16:10:56.018Z,7.00
2023-03-12T16:16:00.473Z,7.15
2023-03-12T16:21:08.432Z,6.93
2023-03-12T16:26:17.239Z,6.93
2023-03-12T16:31:28.746Z,6.90
2023-03-12T16:36:35.678Z,7.00
2023-03-12T16:41:41.276Z,6.22
2023-03-12T16:46:46.509Z,6.50
2023-03-12T16:51:51.939Z,6.88
2023-03-12T16:56:55.858Z,6.35
2023-03-12T17:01:58.899Z,6.68
2023-03-12T17:07:02.511Z,6.47
2023-03-12T17:12:32.390Z,7.07
2023-03-12T17:17:38.227Z,5.75
2023-03-12T17:22:49.330Z,5.63
2023-03-12T17:27:52.884Z,5.60
2023-03-12T17:33:06.323Z,5.97
2023-03-12T17:38:10.490Z,6.25
2023-03-12T17:43:13.589Z,5.95
2023-03-12T17:48:17.552Z,5.63
2023-03-12T17:53:20.932Z,5.35
2023-03-12T17:58:23.939Z,5.63
2023-03-12T18:03:30.163Z,6.13
2023-03-12T18:08:32.938Z,6.18
2023-03-12T18:13:36.207Z,6.53
2023-03-12T18:18:39.330Z,6.55
2023-03-12T18:23:44.288Z,6.20
2023-03-12T18:28:47.502Z,6.43
2023-03-12T18:33:50.519Z,7.18
2023-03-12T18:44:04.129Z,6.78
2023-03-12T18:54:19.187Z,6.25
2023-03-12T18:59:22.112Z,6.60
2023-03-12T19:04:27.691Z,6.55
2023-03-12T19:09:30.581Z,6.70
2023-03-12T19:14:35.015Z,6.38
2023-03-12T19:19:41.495Z,6.05
2023-03-12T19:24:44.485Z,6.70
2023-03-12T19:29:50.055Z,5.80
2023-03-12T19:34:53.256Z,5.88
2023-03-12T19:39:57.466Z,6.05
2023-03-12T19:45:01.107Z,5.85
2023-03-12T19:50:09.536Z,5.30
2023-03-12T19:55:12.798Z,5.43
2023-03-12T20:00:15.964Z,6.20
2023-03-12T20:05:19.079Z,6.07
2023-03-12T20:10:22.022Z,5.82
2023-03-12T20:15:24.875Z,6.30
2023-03-12T20:20:27.901Z,5.32
2023-03-12T20:25:30.785Z,6.53
2023-03-12T20:30:36.719Z,6.78
2023-03-12T20:35:40.036Z,7.30
2023-03-12T20:40:46.390Z,7.68
2023-03-12T20:45:49.386Z,7.50
2023-03-12T20:50:52.958Z,7.68
2023-03-12T20:55:55.753Z,7.43
2023-03-12T21:01:03.138Z,8.52
2023-03-12T21:06:07.633Z,8.75
2023-03-12T21:11:14.080Z,9.20
2023-03-12T21:16:17.012Z,8.23
2023-03-12T21:21:23.701Z,9.05
2023-03-12T21:26:26.480Z,8.82
2023-03-12T21:31:29.300Z,8.07
2023-03-12T21:36:32.808Z,8.10
2023-03-12T21:41:37.026Z,7.43
2023-03-12T21:46:40.725Z,7.82
2023-03-12T21:51:46.291Z,7.80
2023-03-12T21:56:49.209Z,8.23
2023-03-12T22:01:52.715Z,8.57
2023-03-12T22:06:58.371Z,9.18
2023-03-12T22:12:04.257Z,8.57
2023-03-12T22:17:07.359Z,8.45
2023-03-12T22:22:10.443Z,8.68
2023-03-12T22:27:15.979Z,8.55
2023-03-12T22:32:20.200Z,8.50
2023-03-12T22:37:23.496Z,8.77
2023-03-12T22:42:26.190Z,8.27
2023-03-12T22:47:29.386Z,8.90
2023-03-12T22:52:32.184Z,8.60
2023-03-12T22:57:36.128Z,7.22
2023-03-12T23:02:41.868Z,8.13
2023-03-12T23:07:45.598Z,7.22
2023-03-12T23:12:50.748Z,7.97
2023-03-12T23:17:53.982Z,7.60
2023-03-12T23:22:56.543Z,8.43
2023-03-12T23:28:00.279Z,8.02
2023-03-12T23:33:02.995Z,7.85
2023-03-12T23:38:07.109Z,8.00
2023-03-12T23:43:10.809Z,8.10
2023-03-12T23:48:15.884Z,7.78
2023-03-12T23:53:18.768Z,8.30
2023-03-12T23:58:25.330Z,8.75
